Latest Weather Observations for Giles*

IDW60801

Issued at 3:35 pm WST Wednesday 26 November 2014 (issued every 30 minutes, with the page automatically refreshed every 10 minutes)

About weather observations | Map of weather stations | Latest weather observations for WA | Other Formats
Station Details ID: 013017 Name: GILES METEOROLOGICAL OFFICE Lat: -25.03 Lon: 128.30 Height: 598.0 m
Data from the previous 72 hours. | See also: Recent months at Giles*

* Giles observations are collected in the South Australia time zone, which includes daylight saving in the summer period. Therefore, Rain since 9am value is with respect to South Australia local time.

Date/Time
WST
Temp
°C
App
Temp
°C
Dew
Point
Rel
Hum
%
Delta-T
°C
Wind Press
QNH
hPa
Press
MSL
hPa
Rain
since 9 am
mm
Dir
 
Spd
km/h
Gust
km/h
Spd
kts
Gust
kts
26/03:30pm 33.3 27.4 1.8 13 16.3 SSE 22 33 12 18 1013.7 - 0.0
26/03:00pm 33.8 28.9 2.2 13 16.5 SSE 17 28 9 15 1014.0 - 0.0
26/02:30pm 32.9 28.6 3.1 15 15.7 SE 15 24 8 13 1014.4 - 0.0
26/02:00pm 33.3 30.0 4.7 16 15.5 E 11 24 6 13 1014.6 - 0.0
26/01:30pm 32.0 29.7 7.5 21 13.8 NE 9 13 5 7 1014.9 - 0.0
26/01:00pm 31.6 28.9 7.3 22 13.6 NNE 11 19 6 10 1015.4 - 0.0
26/12:30pm 31.1 28.6 6.4 21 13.6 ENE 9 17 5 9 1015.8 1011.7 0.0
26/12:00pm 31.7 26.8 5.0 18 14.4 SE 20 24 11 13 1016.1 - 0.0
26/11:30am 31.7 27.7 2.9 16 15.0 E 13 30 7 16 1016.6 - 0.0
26/11:00am 30.2 26.9 2.5 17 14.2 ENE 9 20 5 11 1017.4 - 0.0
26/10:30am 29.2 26.5 2.5 18 13.6 WNW 6 11 3 6 1018.0 - 0.0
26/10:00am 28.6 25.2 1.9 18 13.4 ENE 9 17 5 9 1018.6 - 0.0
26/09:30am 27.5 23.4 2.1 19 12.7 NE 13 22 7 12 1018.7 1014.7 0.0
26/09:00am 28.2 21.0 0.7 17 13.5 E 28 35 15 19 1018.2 - 0.0
26/08:35am 28.3 21.0 0.1 16 13.7 E 28 46 15 25 1017.9 - 0.0
26/08:30am 28.1 19.9 -0.8 15 13.8 E 32 46 17 25 1017.8 - 0.0
26/08:00am 27.5 19.5 0.3 17 13.2 ENE 32 44 17 24 1017.7 - 0.0
26/07:30am 26.7 18.6 0.0 17 12.8 ENE 32 48 17 26 1017.5 - 0.0
26/07:26am 26.7 19.0 -0.4 17 12.9 E 30 48 16 26 1017.5 - 0.0
26/07:00am 25.7 19.8 2.0 21 11.7 ENE 22 39 12 21 1017.2 - 0.0
26/06:30am 25.1 19.4 2.9 23 11.1 E 22 32 12 17 1016.9 1012.9 0.0
26/06:00am 24.8 19.6 3.3 24 10.8 E 20 32 11 17 1016.8 - 0.0
26/05:30am 23.9 19.7 5.7 31 9.5 E 17 24 9 13 1016.6 - 0.0
26/05:00am 23.1 19.0 6.4 34 8.8 E 17 24 9 13 1016.5 - 0.0
26/04:30am 22.5 19.5 7.6 38 8.0 ESE 13 19 7 10 1016.3 - 0.0
26/04:00am 22.4 19.6 8.4 40 7.6 E 13 17 7 9 1016.2 - 0.0
26/03:30am 22.4 19.4 9.1 42 7.3 ESE 15 19 8 10 1016.0 1011.9 0.0
26/03:00am 22.8 19.9 9.7 43 7.3 E 15 24 8 13 1015.5 - 0.0
26/02:30am 22.6 20.4 10.8 47 6.7 E 13 17 7 9 1015.5 - 0.0
26/02:00am 22.1 20.0 12.3 53 5.7 E 15 19 8 10 1015.2 - 0.0
26/01:30am 22.1 20.7 12.1 53 5.8 E 11 15 6 8 1015.4 - 0.0
26/01:00am 22.6 21.0 11.7 50 6.3 ESE 11 15 6 8 1015.3 - 0.0
26/12:30am 23.1 20.8 11.7 48 6.6 E 15 19 8 10 1015.4 1011.4 0.0
26/12:00am 23.0 21.6 12.2 50 6.3 ESE 11 15 6 8 1015.7 - 0.0
 
Date/Time
WST
Temp
°C
App
Temp
°C
Dew
Point
Rel
Hum
%
Delta-T
°C
Wind Press
QNH
hPa
Press
MSL
hPa
Rain
since 9 am
mm
Dir
 
Spd
km/h
Gust
km/h
Spd
kts
Gust
kts
25/11:30pm 23.4 22.1 12.5 50 6.4 E 11 15 6 8 1015.8 - 0.0
25/11:00pm 23.8 22.0 12.2 48 6.8 E 13 17 7 9 1015.7 - 0.0
25/10:30pm 24.3 22.5 12.2 46 7.1 SSE 13 17 7 9 1015.9 - 0.0
25/10:00pm 25.0 22.2 11.4 42 7.9 SSE 17 22 9 12 1015.8 - 0.0
25/09:30pm 25.2 22.0 11.4 42 8.0 SSE 19 24 10 13 1015.5 1011.5 0.0
25/09:00pm 25.9 22.5 10.4 37 8.9 E 19 24 10 13 1015.9 - 0.0
25/08:30pm 25.7 22.7 10.8 39 8.6 ESE 17 22 9 12 1016.1 - 0.0
25/08:00pm 26.0 20.8 10.3 37 9.0 E 28 41 15 22 1016.1 - 0.0
25/07:30pm 25.8 20.6 11.6 41 8.3 E 30 43 16 23 1016.5 - 0.0
25/07:00pm 26.6 22.3 10.9 37 9.1 ENE 24 41 13 22 1016.5 - 0.0
25/06:30pm 27.2 23.2 10.6 35 9.6 NNE 22 32 12 17 1016.2 1012.1 0.0
25/06:00pm 28.5 25.1 9.1 29 11.0 NNE 17 22 9 12 1016.1 - 0.0
25/05:30pm 28.9 26.3 9.5 29 11.1 NNE 13 15 7 8 1016.9 - 0.0
25/05:00pm 29.2 26.4 8.4 27 11.7 NNW 13 20 7 11 1016.0 - 0.0
25/04:30pm 30.6 27.4 7.0 22 13.1 N 13 20 7 11 1014.7 - 0.0
25/04:00pm 30.5 24.2 7.4 23 12.9 N 30 39 16 21 1013.9 - 0.0
25/03:46pm 30.9 25.0 7.5 23 13.1 N 28 37 15 20 1013.7 - 0.0
25/03:30pm 33.4 30.4 3.9 15 15.8 SW 9 13 5 7 1014.0 1009.9 0.0
25/03:00pm 33.6 27.3 4.0 15 15.9 S 26 37 14 20 1013.9 - 0.0
25/02:30pm 32.6 26.5 6.8 20 14.4 SSW 28 35 15 19 1014.2 - 0.0
25/02:00pm 34.3 31.5 5.1 16 16.0 E 9 19 5 10 1014.3 - 0.0
25/01:30pm 34.7 29.5 5.6 16 16.1 NE 22 32 12 17 1014.6 - 0.0
25/01:00pm 34.9 31.6 4.7 15 16.5 SSE 11 17 6 9 1015.0 - 0.0
25/12:30pm 34.3 32.3 7.3 19 15.3 W 7 15 4 8 1015.5 1011.5 0.0
25/12:00pm 34.6 30.8 5.7 16 16.0 SSE 15 20 8 11 1015.9 - 0.0
25/11:30am 33.8 29.1 6.0 17 15.4 E 20 30 11 16 1016.3 - 0.0
25/11:00am 33.8 28.6 5.4 17 15.6 ENE 22 28 12 15 1016.6 - 0.0
25/10:30am 33.6 28.7 5.3 17 15.5 E 20 32 11 17 1016.9 - 0.0
25/10:00am 32.7 27.7 4.7 17 15.1 ENE 20 26 11 14 1017.1 - 0.0
25/09:30am 31.3 25.6 4.8 19 14.2 ENE 24 37 13 20 1017.4 1013.3 0.0
25/09:00am 30.6 23.9 3.7 18 14.1 E 28 39 15 21 1017.5 - 0.0
25/08:30am 28.8 23.3 4.1 20 12.9 ESE 22 32 12 17 1017.8 - 0.0
25/08:00am 28.5 23.1 4.5 21 12.6 ESE 22 32 12 17 1018.0 - 0.0
25/07:30am 26.8 21.8 4.5 24 11.6 E 20 24 11 13 1018.3 - 0.0
25/07:00am 26.4 21.1 5.0 25 11.2 SE 22 28 12 15 1018.1 - 0.0
25/06:30am 25.2 20.0 5.3 27 10.4 SE 22 32 12 17 1017.8 1013.7 0.0
25/06:00am 24.5 19.3 5.6 29 9.9 ESE 22 30 12 16 1017.2 - 0.0
25/05:30am 23.7 19.0 5.9 31 9.3 SE 20 28 11 15 1017.0 - 0.0
25/05:00am 23.1 19.0 6.1 33 8.9 SE 17 22 9 12 1016.8 - 0.0
25/04:30am 23.0 18.5 5.9 33 8.9 SE 19 24 10 13 1016.3 - 0.0
25/04:00am 23.2 18.7 6.0 33 9.0 ESE 19 24 10 13 1016.1 - 0.0
25/03:30am 23.6 19.0 5.8 31 9.3 ESE 19 20 10 11 1016.0 1011.9 0.0
25/03:00am 24.0 19.2 5.6 30 9.6 ESE 20 26 11 14 1015.7 - 0.0
25/02:30am 24.2 19.6 5.4 29 9.8 ESE 19 24 10 13 1015.7 - 0.0
25/02:00am 24.7 19.8 5.3 28 10.1 ESE 20 30 11 16 1015.8 - 0.0
25/01:30am 24.7 20.0 5.0 28 10.2 ESE 19 24 10 13 1015.7 - 0.0
25/01:00am 24.7 20.3 5.0 28 10.2 ESE 17 20 9 11 1015.8 - 0.0
25/12:30am 25.3 20.9 4.9 27 10.6 ESE 17 20 9 11 1015.8 1011.7 0.0
25/12:00am 26.1 21.1 4.5 25 11.2 ESE 20 26 11 14 1015.9 - 0.0
 
Date/Time
WST
Temp
°C
App
Temp
°C
Dew
Point
Rel
Hum
%
Delta-T
°C
Wind Press
QNH
hPa
Press
MSL
hPa
Rain
since 9 am
mm
Dir
 
Spd
km/h
Gust
km/h
Spd
kts
Gust
kts
24/11:30pm 26.6 21.6 4.4 24 11.5 ESE 20 28 11 15 1016.1 - 0.0
24/11:00pm 27.1 21.4 4.7 24 11.7 SE 24 39 13 21 1016.1 - 0.0
24/10:30pm 27.5 21.4 4.9 23 11.9 SE 26 37 14 20 1016.4 - 0.0
24/10:00pm 27.9 21.8 5.0 23 12.1 SE 26 44 14 24 1016.5 - 0.0
24/09:30pm 28.3 22.3 5.4 23 12.2 SE 26 37 14 20 1016.6 1012.6 0.0
24/09:00pm 28.8 21.7 5.4 22 12.5 SSE 32 48 17 26 1016.2 - 0.0
24/08:30pm 29.1 22.4 5.4 22 12.7 SSE 30 43 16 23 1016.0 - 0.0
24/08:00pm 29.6 22.3 5.4 21 13.0 SSE 33 44 18 24 1015.7 - 0.0
24/07:30pm 30.2 22.8 5.0 20 13.5 S 33 50 18 27 1015.3 - 0.0
24/07:00pm 30.8 24.0 4.9 19 13.9 S 30 44 16 24 1015.0 - 0.0
24/06:30pm 31.6 24.2 4.2 17 14.6 S 32 43 17 23 1014.5 1010.4 0.0
24/06:12pm 31.9 24.5 4.1 17 14.8 S 32 52 17 28 1014.1 - 0.0
24/06:00pm 32.1 24.6 4.2 17 14.9 S 33 46 18 25 1013.9 - 0.0
24/05:40pm 32.8 24.8 3.6 16 15.5 S 35 56 19 30 1013.4 - 0.0
24/05:30pm 33.2 25.5 3.4 15 15.8 S 33 48 18 26 1013.1 - 0.0
24/05:00pm 34.4 26.2 2.9 14 16.7 S 35 50 19 27 1012.7 - 0.0
24/04:30pm 35.0 27.3 2.4 13 17.2 S 32 50 17 27 1012.4 - 0.0
24/04:28pm 35.2 27.8 2.1 12 17.4 S 30 50 16 27 1012.3 - 0.0
24/04:00pm 35.7 28.0 2.1 12 17.7 S 32 44 17 24 1012.2 - 0.0
24/03:30pm 36.3 29.4 2.5 12 18.0 SSE 28 39 15 21 1012.2 1008.1 0.0
24/03:00pm 36.5 29.5 2.2 11 18.2 S 28 41 15 22 1012.2 - 0.0
24/02:30pm 37.4 31.9 2.0 11 18.8 S 20 30 11 16 1012.3 - 0.0
24/02:00pm 36.5 30.7 2.5 12 18.1 S 22 30 12 16 1012.6 - 0.0
24/01:30pm 36.6 31.3 2.8 12 18.1 S 20 30 11 16 1013.0 - 0.0
24/01:00pm 36.4 31.5 4.2 13 17.6 S 19 28 10 15 1013.3 - 0.0
24/12:30pm 36.0 29.8 4.3 14 17.3 S 26 39 14 21 1013.6 1009.6 0.0
24/12:00pm 36.4 31.1 5.2 14 17.3 SSE 22 35 12 19 1014.1 - 0.0
24/11:30am 35.3 29.8 5.9 16 16.4 SSE 24 39 13 21 1014.4 - 0.0
24/11:00am 35.9 30.5 6.2 16 16.7 S 24 35 13 19 1014.6 - 0.0
24/10:30am 35.2 30.6 6.6 17 16.1 S 20 35 11 19 1014.9 - 0.0
24/10:00am 34.8 29.6 5.5 16 16.2 SE 22 33 12 18 1015.3 - 0.0
24/09:30am 34.4 29.0 6.3 17 15.7 SSE 24 32 13 17 1015.5 1011.5 0.0
24/09:00am 34.0 29.3 6.1 17 15.5 SE 20 32 11 17 1015.4 - 0.0
24/08:30am 32.5 27.3 5.7 18 14.7 SSE 22 32 12 17 1015.3 - 0.0
24/08:00am 31.0 24.6 5.2 19 13.9 SE 28 35 15 19 1015.3 - 0.0
24/07:30am 30.7 25.4 5.0 19 13.8 SSE 22 32 12 17 1015.1 - 0.0
24/07:00am 29.0 22.6 5.2 22 12.7 SSE 28 37 15 20 1015.0 - 0.0
24/06:30am 26.6 21.4 7.4 29 10.5 SSE 24 39 13 21 1014.9 1010.9 0.0
24/06:00am 28.1 24.4 6.3 25 11.8 SSE 15 20 8 11 1014.5 - 0.0
24/05:30am 27.6 22.9 5.1 23 11.9 SSE 19 26 10 14 1013.9 - 0.0
24/05:00am 25.2 22.3 6.5 30 10.0 ESE 11 13 6 7 1013.2 - 0.0
24/04:30am 24.7 22.6 6.8 31 9.6 SE 7 9 4 5 1012.4 - 0.0
24/04:00am 26.2 23.2 6.2 28 10.7 ENE 11 13 6 7 1012.1 - 0.0
24/03:30am 25.5 22.6 6.7 30 10.1 SSE 11 13 6 7 1011.8 1007.8 0.0
24/03:00am 27.8 24.4 5.8 24 11.8 E 13 13 7 7 1011.7 - 0.0
24/02:30am 27.1 24.2 6.3 26 11.2 E 11 11 6 6 1011.8 - 0.0
24/02:00am 27.7 25.6 6.8 26 11.4 E 7 11 4 6 1012.1 - 0.0
24/01:30am 28.8 26.5 5.5 22 12.5 ENE 7 9 4 5 1012.4 - 0.0
24/01:00am 29.4 25.8 5.0 21 13.0 N 13 17 7 9 1012.7 - 0.0
24/12:30am 29.4 26.3 5.7 22 12.8 N 11 15 6 8 1012.8 1008.7 0.0
24/12:00am 29.2 26.1 5.6 22 12.7 NNW 11 19 6 10 1013.1 - 0.0
 
Date/Time
WST
Temp
°C
App
Temp
°C
Dew
Point
Rel
Hum
%
Delta-T
°C
Wind Press
QNH
hPa
Press
MSL
hPa
Rain
since 9 am
mm
Dir
 
Spd
km/h
Gust
km/h
Spd
kts
Gust
kts
23/11:30pm 27.4 24.1 6.2 26 11.4 N 13 15 7 8 1013.2 - 0.0
23/11:00pm 27.6 26.1 6.9 27 11.3 NW 4 9 2 5 1013.0 - 0.0
23/10:30pm 27.1 25.2 6.9 27 11.0 SE 6 7 3 4 1012.6 - 0.0
23/10:00pm 27.9 25.5 6.8 26 11.5 SE 9 13 5 7 1012.5 - 0.0
23/09:30pm 30.0 27.8 6.2 22 13.0 NE 7 9 4 5 1012.3 1008.2 0.0
23/09:00pm 29.3 28.1 8.1 26 11.9 E 4 7 2 4 1012.2 - 0.0
23/08:30pm 29.5 28.7 8.2 26 12.0 SSW 2 6 1 3 1012.2 - 0.0
23/08:00pm 30.6 28.1 6.4 22 13.3 SW 9 11 5 6 1012.1 - 0.0
23/07:30pm 31.7 28.3 5.7 19 14.2 WSW 13 20 7 11 1012.1 - 0.0
23/07:00pm 32.1 29.2 6.5 20 14.2 SW 11 15 6 8 1011.6 - 0.0
23/06:30pm 33.5 29.3 5.5 17 15.4 W 17 28 9 15 1011.2 1007.1 0.0
23/06:00pm 33.9 28.9 4.7 16 15.9 W 20 28 11 15 1010.8 - 0.0
23/05:30pm 34.0 30.5 7.1 19 15.2 WNW 15 17 8 9 1010.5 - 0.0
23/05:00pm 34.0 31.1 8.3 20 14.8 NNW 13 20 7 11 1009.9 - 0.0
23/04:30pm 33.9 30.9 9.3 22 14.4 ENE 15 20 8 11 1009.8 - 0.0
23/04:00pm 36.2 33.6 6.2 15 16.9 NW 9 19 5 10 1009.4 - 0.0
23/03:30pm 36.6 32.9 4.7 14 17.6 WNW 13 20 7 11 1009.5 1005.4 0.0
23/03:00pm 36.6 31.8 5.4 14 17.4 N 20 28 11 15 1009.6 - 0.0
23/02:30pm 37.4 33.1 5.1 13 18.0 WNW 17 26 9 14 1009.9 - 0.0
23/02:00pm 37.5 32.2 5.0 13 18.1 WNW 22 28 12 15 1010.3 - 0.0
23/01:30pm 36.0 31.6 4.8 14 17.2 N 17 26 9 14 1010.7 - 0.0

Other Formats:

Comma delimited format used in spreadsheet applications
http://www.bom.gov.au/fwo/IDW60801/IDW60801.94461.axf

JavaScript Object Notation format (JSON) in row-major order
http://www.bom.gov.au/fwo/IDW60801/IDW60801.94461.json